sensor_id;sensor_type;location;lat;lon;timestamp;pressure;altitude;pressure_sealevel;temperature;humidity
5651;BME280;40241;52.684;9.758;2023-05-02T00:00:48;101353.34;;;13.80;54.44
5651;BME280;40241;52.684;9.758;2023-05-02T00:03:14;101346.53;;;13.81;54.50
5651;BME280;40241;52.684;9.758;2023-05-02T00:05:40;101346.53;;;13.81;54.36
5651;BME280;40241;52.684;9.758;2023-05-02T00:08:06;101355.84;;;13.78;54.42
5651;BME280;40241;52.684;9.758;2023-05-02T00:10:32;101366.66;;;13.81;54.41
5651;BME280;40241;52.684;9.758;2023-05-02T00:12:57;101354.56;;;13.79;54.26
5651;BME280;40241;52.684;9.758;2023-05-02T00:15:22;101351.81;;;13.79;54.38
5651;BME280;40241;52.684;9.758;2023-05-02T00:17:47;101358.88;;;13.80;54.54
5651;BME280;40241;52.684;9.758;2023-05-02T00:20:13;101356.09;;;13.80;54.38
5651;BME280;40241;52.684;9.758;2023-05-02T00:22:38;101348.28;;;13.78;54.53
5651;BME280;40241;52.684;9.758;2023-05-02T00:25:05;101353.34;;;13.80;54.65
5651;BME280;40241;52.684;9.758;2023-05-02T00:27:30;101350.06;;;13.76;54.56
5651;BME280;40241;52.684;9.758;2023-05-02T00:29:56;101350.06;;;13.76;54.67
5651;BME280;40241;52.684;9.758;2023-05-02T00:32:23;101341.50;;;13.74;54.73
5651;BME280;40241;52.684;9.758;2023-05-02T00:34:48;101339.72;;;13.76;54.91
5651;BME280;40241;52.684;9.758;2023-05-02T00:37:14;101339.72;;;13.76;54.68
5651;BME280;40241;52.684;9.758;2023-05-02T00:39:40;101347.28;;;13.76;55.00
5651;BME280;40241;52.684;9.758;2023-05-02T00:42:05;101361.63;;;13.80;54.76
5651;BME280;40241;52.684;9.758;2023-05-02T00:44:31;101358.63;;;13.78;54.76
5651;BME280;40241;52.684;9.758;2023-05-02T00:46:57;101352.06;;;13.75;54.74
5651;BME280;40241;52.684;9.758;2023-05-02T00:49:23;101360.63;;;13.77;54.77
5651;BME280;40241;52.684;9.758;2023-05-02T00:51:48;101363.88;;;13.76;54.76
5651;BME280;40241;52.684;9.758;2023-05-02T00:54:14;101366.09;;;13.72;54.70
5651;BME280;40241;52.684;9.758;2023-05-02T00:56:40;101362.88;;;13.73;54.84
5651;BME280;40241;52.684;9.758;2023-05-02T00:59:06;101367.38;;;13.71;54.82
5651;BME280;40241;52.684;9.758;2023-05-02T01:01:56;101358.31;;;13.70;56.25
5651;BME280;40241;52.684;9.758;2023-05-02T01:12:31;101361.84;;;13.71;56.30
5651;BME280;40241;52.684;9.758;2023-05-02T01:14:58;101354.53;;;13.68;55.14
5651;BME280;40241;52.684;9.758;2023-05-02T01:17:27;101361.81;;;13.65;55.07
5651;BME280;40241;52.684;9.758;2023-05-02T01:19:57;101357.28;;;13.68;55.25
5651;BME280;40241;52.684;9.758;2023-05-02T01:22:25;101366.09;;;13.66;55.17
5651;BME280;40241;52.684;9.758;2023-05-02T01:27:35;101360.56;;;13.61;55.27
5651;BME280;40241;52.684;9.758;2023-05-02T01:30:02;101353.25;;;13.58;55.40
5651;BME280;40241;52.684;9.758;2023-05-02T01:32:30;101368.56;;;13.59;55.25
5651;BME280;40241;52.684;9.758;2023-05-02T01:34:59;101366.56;;;13.53;55.37
5651;BME280;40241;52.684;9.758;2023-05-02T01:37:27;101360.00;;;13.51;55.43
5651;BME280;40241;52.684;9.758;2023-05-02T01:39:54;101364.75;;;13.50;55.38
5651;BME280;40241;52.684;9.758;2023-05-02T01:42:21;101368.25;;;13.45;55.48
5651;BME280;40241;52.684;9.758;2023-05-02T01:44:48;101362.19;;;13.41;55.31
5651;BME280;40241;52.684;9.758;2023-05-02T01:47:15;101379.78;;;13.38;55.27
5651;BME280;40241;52.684;9.758;2023-05-02T01:49:42;101381.53;;;13.36;55.50
5651;BME280;40241;52.684;9.758;2023-05-02T01:52:10;101378.97;;;13.32;55.54
5651;BME280;40241;52.684;9.758;2023-05-02T01:54:37;101389.75;;;13.30;55.52
5651;BME280;40241;52.684;9.758;2023-05-02T01:57:06;101386.75;;;13.28;55.51
5651;BME280;40241;52.684;9.758;2023-05-02T01:59:34;101401.31;;;13.23;55.57
5651;BME280;40241;52.684;9.758;2023-05-02T02:02:01;101392.75;;;13.21;55.63
5651;BME280;40241;52.684;9.758;2023-05-02T02:04:27;101400.22;;;13.15;55.60
5651;BME280;40241;52.684;9.758;2023-05-02T02:07:01;101400.97;;;13.16;56.42
5651;BME280;40241;52.684;9.758;2023-05-02T02:09:28;101401.97;;;13.13;55.57
5651;BME280;40241;52.684;9.758;2023-05-02T02:12:23;101402.97;;;13.15;57.08
5651;BME280;40241;52.684;9.758;2023-05-02T02:15:40;101402.72;;;13.13;56.41
5651;BME280;40241;52.684;9.758;2023-05-02T02:18:01;101406.56;;;13.21;57.66
5651;BME280;40241;52.684;9.758;2023-05-02T02:20:29;101411.81;;;13.19;55.91
5651;BME280;40241;52.684;9.758;2023-05-02T02:22:57;101408.06;;;13.22;55.91
5651;BME280;40241;52.684;9.758;2023-05-02T02:25:25;101398.81;;;13.25;55.92
5651;BME280;40241;52.684;9.758;2023-05-02T02:27:51;101403.56;;;13.25;55.91
5651;BME280;40241;52.684;9.758;2023-05-02T02:30:17;101426.47;;;13.31;56.08
5651;BME280;40241;52.684;9.758;2023-05-02T02:32:42;101423.47;;;13.34;55.94
5651;BME280;40241;52.684;9.758;2023-05-02T02:35:08;101418.47;;;13.38;56.07
5651;BME280;40241;52.684;9.758;2023-05-02T02:37:39;101407.94;;;13.42;56.48
5651;BME280;40241;52.684;9.758;2023-05-02T02:42:44;101413.75;;;13.50;56.55
5651;BME280;40241;52.684;9.758;2023-05-02T02:48:59;101425.31;;;13.48;57.59
5651;BME280;40241;52.684;9.758;2023-05-02T02:51:31;101427.09;;;13.51;56.55
5651;BME280;40241;52.684;9.758;2023-05-02T02:56:48;101432.16;;;13.59;56.64
5651;BME280;40241;52.684;9.758;2023-05-02T02:59:20;101434.97;;;13.64;56.65
5651;BME280;40241;52.684;9.758;2023-05-02T03:02:01;101441.03;;;13.68;57.20
5651;BME280;40241;52.684;9.758;2023-05-02T03:04:29;101444.03;;;13.70;56.69
5651;BME280;40241;52.684;9.758;2023-05-02T03:06:55;101458.66;;;13.76;56.67
5651;BME280;40241;52.684;9.758;2023-05-02T03:09:21;101447.13;;;13.78;56.59
5651;BME280;40241;52.684;9.758;2023-05-02T03:11:46;101446.63;;;13.79;56.69
5651;BME280;40241;52.684;9.758;2023-05-02T03:14:11;101453.44;;;13.84;56.88
5651;BME280;40241;52.684;9.758;2023-05-02T03:16:40;101474.34;;;13.90;56.86
5651;BME280;40241;52.684;9.758;2023-05-02T03:19:06;101448.16;;;13.91;56.52
5651;BME280;40241;52.684;9.758;2023-05-02T03:21:33;101457.75;;;13.96;56.67
5651;BME280;40241;52.684;9.758;2023-05-02T03:24:00;101450.72;;;13.95;56.68
5651;BME280;40241;52.684;9.758;2023-05-02T03:26:26;101463.81;;;14.00;56.87
5651;BME280;40241;52.684;9.758;2023-05-02T03:28:52;101469.63;;;14.02;56.95
5651;BME280;40241;52.684;9.758;2023-05-02T03:31:17;101461.56;;;14.04;56.88
5651;BME280;40241;52.684;9.758;2023-05-02T03:33:43;101467.38;;;14.06;56.99
5651;BME280;40241;52.684;9.758;2023-05-02T03:36:08;101470.41;;;14.08;57.01
5651;BME280;40241;52.684;9.758;2023-05-02T03:38:34;101468.16;;;14.12;57.22
5651;BME280;40241;52.684;9.758;2023-05-02T03:40:59;101471.16;;;14.14;56.99
5651;BME280;40241;52.684;9.758;2023-05-02T03:43:25;101466.91;;;14.13;57.13
5651;BME280;40241;52.684;9.758;2023-05-02T03:45:50;101474.19;;;14.16;57.18
5651;BME280;40241;52.684;9.758;2023-05-02T03:48:15;101480.25;;;14.20;57.28
5651;BME280;40241;52.684;9.758;2023-05-02T03:50:41;101488.06;;;14.21;57.21
5651;BME280;40241;52.684;9.758;2023-05-02T03:53:07;101484.03;;;14.22;57.38
5651;BME280;40241;52.684;9.758;2023-05-02T03:55:41;101494.09;;;14.20;57.81
5651;BME280;40241;52.684;9.758;2023-05-02T03:58:07;101497.09;;;14.22;57.46
5651;BME280;40241;52.684;9.758;2023-05-02T04:00:32;101487.56;;;14.23;57.51
5651;BME280;40241;52.684;9.758;2023-05-02T04:03:00;101510.94;;;14.22;57.72
5651;BME280;40241;52.684;9.758;2023-05-02T04:05:25;101499.88;;;14.22;57.74
5651;BME280;40241;52.684;9.758;2023-05-02T04:07:51;101508.69;;;14.20;57.70
5651;BME280;40241;52.684;9.758;2023-05-02T04:10:16;101513.97;;;14.18;57.90
5651;BME280;40241;52.684;9.758;2023-05-02T04:12:42;101510.44;;;14.18;58.07
5651;BME280;40241;52.684;9.758;2023-05-02T04:15:09;101518.97;;;14.14;58.27
5651;BME280;40241;52.684;9.758;2023-05-02T04:17:35;101531.28;;;14.08;58.17
5651;BME280;40241;52.684;9.758;2023-05-02T04:20:00;101534.25;;;14.04;58.34
5651;BME280;40241;52.684;9.758;2023-05-02T04:22:25;101550.38;;;14.06;58.36
5651;BME280;40241;52.684;9.758;2023-05-02T04:24:52;101556.94;;;14.08;58.34
5651;BME280;40241;52.684;9.758;2023-05-02T04:27:17;101560.69;;;14.05;58.59
5651;BME280;40241;52.684;9.758;2023-05-02T04:29:42;101570.78;;;14.08;58.43
5651;BME280;40241;52.684;9.758;2023-05-02T04:32:08;101556.94;;;14.08;58.50
5651;BME280;40241;52.684;9.758;2023-05-02T04:34:34;101558.63;;;14.00;58.59
5651;BME280;40241;52.684;9.758;2023-05-02T04:37:00;101596.81;;;13.91;58.92
5651;BME280;40241;52.684;9.758;2023-05-02T04:39:25;101599.16;;;13.67;58.61
5651;BME280;40241;52.684;9.758;2023-05-02T04:41:50;101598.78;;;13.53;59.03
5651;BME280;40241;52.684;9.758;2023-05-02T04:44:16;101618.03;;;13.42;58.84
5651;BME280;40241;52.684;9.758;2023-05-02T04:46:41;101624.00;;;13.35;58.99
5651;BME280;40241;52.684;9.758;2023-05-02T04:49:07;101612.06;;;13.24;58.69
5651;BME280;40241;52.684;9.758;2023-05-02T04:51:32;101621.88;;;13.25;58.78
5651;BME280;40241;52.684;9.758;2023-05-02T04:53:57;101626.78;;;13.15;58.76
5651;BME280;40241;52.684;9.758;2023-05-02T04:56:23;101638.56;;;13.10;58.68
5651;BME280;40241;52.684;9.758;2023-05-02T04:58:48;101633.72;;;13.05;58.82
5651;BME280;40241;52.684;9.758;2023-05-02T05:01:13;101645.56;;;12.91;58.79
5651;BME280;40241;52.684;9.758;2023-05-02T05:03:39;101654.28;;;12.84;58.89
5651;BME280;40241;52.684;9.758;2023-05-02T05:06:04;101648.63;;;12.73;59.03
5651;BME280;40241;52.684;9.758;2023-05-02T05:08:30;101668.75;;;12.59;59.01
5651;BME280;40241;52.684;9.758;2023-05-02T05:10:55;101674.56;;;12.61;58.82
5651;BME280;40241;52.684;9.758;2023-05-02T05:13:21;101680.75;;;12.56;58.82
5651;BME280;40241;52.684;9.758;2023-05-02T05:15:46;101689.34;;;12.43;59.09
5651;BME280;40241;52.684;9.758;2023-05-02T05:18:11;101703.66;;;12.42;58.69
5651;BME280;40241;52.684;9.758;2023-05-02T05:20:37;101687.97;;;12.33;58.95
5651;BME280;40241;52.684;9.758;2023-05-02T05:23:02;101704.53;;;12.33;59.13
5651;BME280;40241;52.684;9.758;2023-05-02T05:25:28;101698.84;;;12.22;58.65
5651;BME280;40241;52.684;9.758;2023-05-02T05:27:53;101709.19;;;12.13;58.75
5651;BME280;40241;52.684;9.758;2023-05-02T05:30:20;101699.88;;;12.10;58.55
5651;BME280;40241;52.684;9.758;2023-05-02T05:32:46;101719.19;;;12.10;58.53
5651;BME280;40241;52.684;9.758;2023-05-02T05:35:11;101707.97;;;12.14;58.57
5651;BME280;40241;52.684;9.758;2023-05-02T05:37:37;101716.63;;;12.07;58.30
5651;BME280;40241;52.684;9.758;2023-05-02T05:40:06;101709.97;;;11.98;58.23
5651;BME280;40241;52.684;9.758;2023-05-02T05:42:31;101733.28;;;12.12;58.13
5651;BME280;40241;52.684;9.758;2023-05-02T05:44:57;101733.66;;;12.20;58.27
5651;BME280;40241;52.684;9.758;2023-05-02T05:47:22;101733.16;;;12.21;57.79
5651;BME280;40241;52.684;9.758;2023-05-02T05:49:54;101782.75;;;12.16;57.52
5651;BME280;40241;52.684;9.758;2023-05-02T05:52:21;101764.00;;;12.20;57.63
5651;BME280;40241;52.684;9.758;2023-05-02T05:54:46;101756.56;;;12.26;57.42
5651;BME280;40241;52.684;9.758;2023-05-02T05:57:12;101759.03;;;12.24;57.52
5651;BME280;40241;52.684;9.758;2023-05-02T05:59:37;101760.75;;;12.21;57.34
5651;BME280;40241;52.684;9.758;2023-05-02T06:02:02;101773.69;;;12.30;57.38
5651;BME280;40241;52.684;9.758;2023-05-02T06:04:28;101771.59;;;12.39;57.08
5651;BME280;40241;52.684;9.758;2023-05-02T06:06:53;101769.50;;;12.34;57.17
5651;BME280;40241;52.684;9.758;2023-05-02T06:09:19;101782.66;;;12.25;56.76
5651;BME280;40241;52.684;9.758;2023-05-02T06:11:44;101783.41;;;12.11;56.84
5651;BME280;40241;52.684;9.758;2023-05-02T06:14:10;101784.06;;;12.20;56.94
5651;BME280;40241;52.684;9.758;2023-05-02T06:16:35;101789.50;;;12.29;56.86
5651;BME280;40241;52.684;9.758;2023-05-02T06:19:01;101795.38;;;12.37;56.71
5651;BME280;40241;52.684;9.758;2023-05-02T06:21:26;101792.91;;;12.39;56.52
5651;BME280;40241;52.684;9.758;2023-05-02T06:23:51;101795.00;;;12.44;56.34
5651;BME280;40241;52.684;9.758;2023-05-02T06:26:17;101792.44;;;12.55;56.16
5651;BME280;40241;52.684;9.758;2023-05-02T06:28:42;101804.59;;;12.63;56.38
5651;BME280;40241;52.684;9.758;2023-05-02T06:31:08;101805.03;;;12.76;56.05
5651;BME280;40241;52.684;9.758;2023-05-02T06:33:34;101814.03;;;12.71;55.76
5651;BME280;40241;52.684;9.758;2023-05-02T06:36:00;101812.22;;;12.68;55.71
5651;BME280;40241;52.684;9.758;2023-05-02T06:38:26;101836.78;;;12.66;55.55
5651;BME280;40241;52.684;9.758;2023-05-02T06:40:51;101836.41;;;12.73;55.38
5651;BME280;40241;52.684;9.758;2023-05-02T06:43:17;101828.19;;;12.78;55.37
5651;BME280;40241;52.684;9.758;2023-05-02T06:45:43;101840.16;;;12.90;55.35
5651;BME280;40241;52.684;9.758;2023-05-02T06:48:09;101845.75;;;12.96;54.82
5651;BME280;40241;52.684;9.758;2023-05-02T06:50:35;101841.56;;;13.00;54.78
5651;BME280;40241;52.684;9.758;2023-05-02T06:53:00;101855.66;;;13.02;54.84
5651;BME280;40241;52.684;9.758;2023-05-02T06:55:26;101853.03;;;13.08;54.74
5651;BME280;40241;52.684;9.758;2023-05-02T06:57:53;101859.88;;;13.12;54.71
5651;BME280;40241;52.684;9.758;2023-05-02T07:00:19;101853.75;;;13.23;54.59
5651;BME280;40241;52.684;9.758;2023-05-02T07:02:45;101864.19;;;13.33;54.33
5651;BME280;40241;52.684;9.758;2023-05-02T07:05:11;101866.13;;;13.27;53.79
5651;BME280;40241;52.684;9.758;2023-05-02T07:07:37;101866.78;;;13.22;53.83
5651;BME280;40241;52.684;9.758;2023-05-02T07:10:03;101876.03;;;13.19;53.71
5651;BME280;40241;52.684;9.758;2023-05-02T07:12:28;101865.88;;;13.11;53.52
5651;BME280;40241;52.684;9.758;2023-05-02T07:14:54;101888.84;;;13.17;53.62
5651;BME280;40241;52.684;9.758;2023-05-02T07:17:19;101912.06;;;13.25;53.61
5651;BME280;40241;52.684;9.758;2023-05-02T07:19:45;101894.75;;;13.44;53.20
5651;BME280;40241;52.684;9.758;2023-05-02T07:22:10;101894.63;;;13.53;52.93
5651;BME280;40241;52.684;9.758;2023-05-02T07:24:39;101906.09;;;13.46;52.25
5651;BME280;40241;52.684;9.758;2023-05-02T07:27:05;101900.41;;;13.35;52.24
5651;BME280;40241;52.684;9.758;2023-05-02T07:29:31;101914.94;;;13.16;52.66
5651;BME280;40241;52.684;9.758;2023-05-02T07:31:56;101914.06;;;13.24;52.67
5651;BME280;40241;52.684;9.758;2023-05-02T07:34:21;101922.72;;;13.32;52.67
5651;BME280;40241;52.684;9.758;2023-05-02T07:36:47;101926.31;;;13.38;52.29
5651;BME280;40241;52.684;9.758;2023-05-02T07:39:12;101911.72;;;13.37;51.71
5651;BME280;40241;52.684;9.758;2023-05-02T07:41:37;101928.19;;;13.46;51.88
5651;BME280;40241;52.684;9.758;2023-05-02T07:44:03;101925.72;;;13.48;51.58
5651;BME280;40241;52.684;9.758;2023-05-02T07:46:28;101931.53;;;13.50;51.55
5651;BME280;40241;52.684;9.758;2023-05-02T07:48:53;101933.63;;;13.56;51.63
5651;BME280;40241;52.684;9.758;2023-05-02T07:51:19;101936.50;;;13.46;50.95
5651;BME280;40241;52.684;9.758;2023-05-02T07:53:48;101936.28;;;13.50;51.18
5651;BME280;40241;52.684;9.758;2023-05-02T07:56:14;101933.88;;;13.58;51.16
5651;BME280;40241;52.684;9.758;2023-05-02T07:58:39;101950.38;;;13.52;50.67
5651;BME280;40241;52.684;9.758;2023-05-02T08:01:04;101938.31;;;13.49;50.83
5651;BME280;40241;52.684;9.758;2023-05-02T08:03:30;101952.19;;;13.55;50.69
5651;BME280;40241;52.684;9.758;2023-05-02T08:05:56;101948.88;;;13.51;50.63
5651;BME280;40241;52.684;9.758;2023-05-02T08:08:21;101953.31;;;13.63;50.75
5651;BME280;40241;52.684;9.758;2023-05-02T08:10:47;101950.28;;;13.61;50.22
5651;BME280;40241;52.684;9.758;2023-05-02T08:13:14;101970.69;;;13.64;49.82
5651;BME280;40241;52.684;9.758;2023-05-02T08:15:39;101970.88;;;13.60;49.67
5651;BME280;40241;52.684;9.758;2023-05-02T08:18:05;101974.53;;;13.51;49.63
5651;BME280;40241;52.684;9.758;2023-05-02T08:20:31;101983.78;;;13.48;49.93
5651;BME280;40241;52.684;9.758;2023-05-02T08:22:56;101999.81;;;13.44;49.62
5651;BME280;40241;52.684;9.758;2023-05-02T08:25:21;101996.88;;;13.33;49.63
5651;BME280;40241;52.684;9.758;2023-05-02T08:27:46;101989.63;;;13.36;49.57
5651;BME280;40241;52.684;9.758;2023-05-02T08:30:12;101993.22;;;13.42;49.60
5651;BME280;40241;52.684;9.758;2023-05-02T08:32:38;102009.78;;;13.57;49.95
5651;BME280;40241;52.684;9.758;2023-05-02T08:35:04;102003.81;;;13.78;49.63
5651;BME280;40241;52.684;9.758;2023-05-02T08:37:29;102015.41;;;13.97;49.23
5651;BME280;40241;52.684;9.758;2023-05-02T08:39:56;102021.66;;;14.12;48.86
5651;BME280;40241;52.684;9.758;2023-05-02T08:42:22;102018.25;;;14.22;48.47
5651;BME280;40241;52.684;9.758;2023-05-02T08:44:48;102017.78;;;14.04;48.07
5651;BME280;40241;52.684;9.758;2023-05-02T08:47:14;102027.41;;;14.08;48.23
5651;BME280;40241;52.684;9.758;2023-05-02T08:49:41;102006.22;;;14.05;48.16
5651;BME280;40241;52.684;9.758;2023-05-02T08:52:07;102024.84;;;14.25;48.17
5651;BME280;40241;52.684;9.758;2023-05-02T08:54:36;102041.84;;;14.33;47.24
5651;BME280;40241;52.684;9.758;2023-05-02T08:57:03;102043.38;;;14.19;47.61
5651;BME280;40241;52.684;9.758;2023-05-02T08:59:28;102039.22;;;14.09;47.75
5651;BME280;40241;52.684;9.758;2023-05-02T09:01:58;102035.56;;;14.17;47.26
5651;BME280;40241;52.684;9.758;2023-05-02T09:04:29;102054.63;;;14.30;47.84
5651;BME280;40241;52.684;9.758;2023-05-02T09:06:56;102047.69;;;14.40;47.89
5651;BME280;40241;52.684;9.758;2023-05-02T09:09:21;102057.88;;;14.49;47.59
5651;BME280;40241;52.684;9.758;2023-05-02T09:11:48;102059.97;;;14.54;47.02
5651;BME280;40241;52.684;9.758;2023-05-02T09:14:15;102063.41;;;14.49;47.17
5651;BME280;40241;52.684;9.758;2023-05-02T09:16:41;102080.25;;;14.45;47.47
5651;BME280;40241;52.684;9.758;2023-05-02T09:19:06;102069.59;;;14.58;47.27
5651;BME280;40241;52.684;9.758;2023-05-02T09:21:39;102081.34;;;14.53;46.06
5651;BME280;40241;52.684;9.758;2023-05-02T09:24:19;102084.13;;;14.53;46.08
5651;BME280;40241;52.684;9.758;2023-05-02T09:26:57;102083.97;;;14.42;45.60
5651;BME280;40241;52.684;9.758;2023-05-02T09:29:23;102099.41;;;14.49;47.07
5651;BME280;40241;52.684;9.758;2023-05-02T09:31:49;102096.25;;;14.56;46.67
5651;BME280;40241;52.684;9.758;2023-05-02T09:34:15;102084.34;;;14.50;46.65
5651;BME280;40241;52.684;9.758;2023-05-02T09:36:45;102092.38;;;14.48;46.54
5651;BME280;40241;52.684;9.758;2023-05-02T09:39:16;102106.63;;;14.61;46.20
5651;BME280;40241;52.684;9.758;2023-05-02T09:41:43;102101.44;;;14.68;46.48
5651;BME280;40241;52.684;9.758;2023-05-02T09:44:10;102091.88;;;14.89;46.42
5651;BME280;40241;52.684;9.758;2023-05-02T09:46:40;102096.81;;;15.06;45.78
5651;BME280;40241;52.684;9.758;2023-05-02T09:49:06;102104.44;;;15.11;45.82
5651;BME280;40241;52.684;9.758;2023-05-02T09:51:32;102098.88;;;15.11;45.67
5651;BME280;40241;52.684;9.758;2023-05-02T09:53:57;102118.34;;;15.16;45.68
5651;BME280;40241;52.684;9.758;2023-05-02T09:56:23;102114.31;;;15.17;45.37
5651;BME280;40241;52.684;9.758;2023-05-02T09:58:48;102109.88;;;15.25;45.14
5651;BME280;40241;52.684;9.758;2023-05-02T10:01:14;102109.53;;;15.18;45.06
5651;BME280;40241;52.684;9.758;2023-05-02T10:03:41;102128.00;;;15.00;44.70
5651;BME280;40241;52.684;9.758;2023-05-02T10:06:11;102114.31;;;14.71;44.43
5651;BME280;40241;52.684;9.758;2023-05-02T10:08:38;102127.25;;;14.60;45.06
5651;BME280;40241;52.684;9.758;2023-05-02T10:11:06;102129.75;;;14.78;44.91
5651;BME280;40241;52.684;9.758;2023-05-02T10:13:32;102140.63;;;14.81;45.22
5651;BME280;40241;52.684;9.758;2023-05-02T10:16:05;102123.94;;;14.96;44.59
5651;BME280;40241;52.684;9.758;2023-05-02T10:18:51;102151.69;;;15.22;44.11
5651;BME280;40241;52.684;9.758;2023-05-02T10:21:26;102143.22;;;15.56;43.78
5651;BME280;40241;52.684;9.758;2023-05-02T10:23:52;102141.13;;;15.77;44.62
5651;BME280;40241;52.684;9.758;2023-05-02T10:26:18;102170.44;;;16.15;44.37
5651;BME280;40241;52.684;9.758;2023-05-02T10:28:47;102147.50;;;16.57;43.73
5651;BME280;40241;52.684;9.758;2023-05-02T10:31:13;102146.63;;;16.82;43.55
5651;BME280;40241;52.684;9.758;2023-05-02T10:33:39;102167.31;;;16.81;43.13
5651;BME280;40241;52.684;9.758;2023-05-02T10:36:07;102145.31;;;16.77;42.95
5651;BME280;40241;52.684;9.758;2023-05-02T10:38:34;102139.22;;;16.73;43.20
5651;BME280;40241;52.684;9.758;2023-05-02T10:41:04;102149.50;;;16.56;42.63
5651;BME280;40241;52.684;9.758;2023-05-02T10:43:33;102131.19;;;16.38;42.49
5651;BME280;40241;52.684;9.758;2023-05-02T10:45:59;102141.97;;;16.25;42.49
5651;BME280;40241;52.684;9.758;2023-05-02T10:48:27;102183.72;;;16.36;42.55
5651;BME280;40241;52.684;9.758;2023-05-02T10:50:54;102145.97;;;16.19;42.19
5651;BME280;40241;52.684;9.758;2023-05-02T10:53:25;102151.50;;;16.13;40.60
5651;BME280;40241;52.684;9.758;2023-05-02T10:56:10;102150.22;;;15.77;40.57
5651;BME280;40241;52.684;9.758;2023-05-02T10:58:36;102152.31;;;15.57;42.11
5651;BME280;40241;52.684;9.758;2023-05-02T11:04:16;102125.56;;;16.27;41.31
5651;BME280;40241;52.684;9.758;2023-05-02T11:11:49;102139.72;;;16.66;41.91
5651;BME280;40241;52.684;9.758;2023-05-02T11:20:18;102174.28;;;17.18;40.27
5651;BME280;40241;52.684;9.758;2023-05-02T11:24:44;102159.84;;;17.09;40.77
5651;BME280;40241;52.684;9.758;2023-05-02T11:35:21;102166.28;;;17.76;39.70
5651;BME280;40241;52.684;9.758;2023-05-02T11:37:53;102168.09;;;17.73;39.27
5651;BME280;40241;52.684;9.758;2023-05-02T11:40:19;102183.25;;;17.78;40.63
5651;BME280;40241;52.684;9.758;2023-05-02T11:42:44;102170.09;;;17.78;40.37
5651;BME280;40241;52.684;9.758;2023-05-02T11:45:10;102180.72;;;17.58;40.39
5651;BME280;40241;52.684;9.758;2023-05-02T11:47:35;102187.56;;;17.79;40.12
5651;BME280;40241;52.684;9.758;2023-05-02T11:50:04;102177.44;;;18.15;40.05
5651;BME280;40241;52.684;9.758;2023-05-02T11:52:29;102184.50;;;18.49;39.62
5651;BME280;40241;52.684;9.758;2023-05-02T11:54:56;102170.78;;;18.62;38.98
5651;BME280;40241;52.684;9.758;2023-05-02T11:57:22;102183.69;;;18.65;38.89
5651;BME280;40241;52.684;9.758;2023-05-02T11:59:55;102188.81;;;18.50;38.53
5651;BME280;40241;52.684;9.758;2023-05-02T12:02:43;102189.56;;;18.45;37.95
5651;BME280;40241;52.684;9.758;2023-05-02T12:05:13;102192.38;;;18.45;39.32
5651;BME280;40241;52.684;9.758;2023-05-02T12:07:43;102209.56;;;18.38;38.94
5651;BME280;40241;52.684;9.758;2023-05-02T12:10:11;102183.50;;;18.13;39.40
5651;BME280;40241;52.684;9.758;2023-05-02T12:12:37;102193.66;;;18.05;39.48
5651;BME280;40241;52.684;9.758;2023-05-02T12:15:11;102204.03;;;17.93;37.88
5651;BME280;40241;52.684;9.758;2023-05-02T12:17:42;102195.66;;;17.93;39.29
5651;BME280;40241;52.684;9.758;2023-05-02T12:20:09;102197.94;;;17.89;38.95
5651;BME280;40241;52.684;9.758;2023-05-02T12:22:35;102198.47;;;17.88;39.45
5651;BME280;40241;52.684;9.758;2023-05-02T12:25:01;102217.47;;;17.95;39.49
5651;BME280;40241;52.684;9.758;2023-05-02T12:27:28;102202.75;;;18.06;39.40
5651;BME280;40241;52.684;9.758;2023-05-02T12:29:53;102202.50;;;18.04;39.05
5651;BME280;40241;52.684;9.758;2023-05-02T12:32:33;102205.56;;;17.94;37.27
5651;BME280;40241;52.684;9.758;2023-05-02T12:35:00;102200.97;;;17.80;39.00
5651;BME280;40241;52.684;9.758;2023-05-02T12:37:26;102206.28;;;17.62;39.05
5651;BME280;40241;52.684;9.758;2023-05-02T12:39:53;102208.28;;;17.61;39.16
5651;BME280;40241;52.684;9.758;2023-05-02T12:42:21;102203.25;;;17.71;38.99
5651;BME280;40241;52.684;9.758;2023-05-02T12:44:47;102219.72;;;17.69;38.59
5651;BME280;40241;52.684;9.758;2023-05-02T12:47:15;102227.28;;;17.63;38.62
5651;BME280;40241;52.684;9.758;2023-05-02T12:49:50;102222.91;;;17.45;38.16
5651;BME280;40241;52.684;9.758;2023-05-02T12:52:20;102232.50;;;17.33;38.89
5651;BME280;40241;52.684;9.758;2023-05-02T12:54:46;102223.13;;;17.25;38.96
5651;BME280;40241;52.684;9.758;2023-05-02T12:57:24;102221.22;;;17.00;37.47
5651;BME280;40241;52.684;9.758;2023-05-02T12:59:51;102229.84;;;17.02;39.16
5651;BME280;40241;52.684;9.758;2023-05-02T13:02:18;102234.72;;;17.18;39.24
5651;BME280;40241;52.684;9.758;2023-05-02T13:04:43;102230.97;;;17.32;39.07
5651;BME280;40241;52.684;9.758;2023-05-02T13:07:09;102234.25;;;17.31;38.15
5651;BME280;40241;52.684;9.758;2023-05-02T13:09:35;102255.13;;;17.04;38.55
5651;BME280;40241;52.684;9.758;2023-05-02T13:12:00;102236.34;;;16.88;38.76
5651;BME280;40241;52.684;9.758;2023-05-02T13:14:28;102254.00;;;16.85;39.10
5651;BME280;40241;52.684;9.758;2023-05-02T13:16:53;102241.41;;;16.89;39.35
5651;BME280;40241;52.684;9.758;2023-05-02T13:19:19;102244.69;;;16.88;39.20
5651;BME280;40241;52.684;9.758;2023-05-02T13:21:45;102259.81;;;16.81;39.51
5651;BME280;40241;52.684;9.758;2023-05-02T13:24:10;102268.94;;;16.87;39.73
5651;BME280;40241;52.684;9.758;2023-05-02T13:26:36;102259.38;;;16.94;39.72
5651;BME280;40241;52.684;9.758;2023-05-02T13:29:01;102253.34;;;17.01;39.70
5651;BME280;40241;52.684;9.758;2023-05-02T13:31:26;102249.09;;;17.05;39.59
5651;BME280;40241;52.684;9.758;2023-05-02T13:33:52;102257.44;;;17.11;39.48
5651;BME280;40241;52.684;9.758;2023-05-02T13:36:17;102256.44;;;17.14;39.50
5651;BME280;40241;52.684;9.758;2023-05-02T13:38:42;102255.16;;;17.09;39.45
5651;BME280;40241;52.684;9.758;2023-05-02T13:41:08;102266.81;;;17.19;39.56
5651;BME280;40241;52.684;9.758;2023-05-02T13:43:33;102264.06;;;17.24;39.50